Map

Track Data

SID SEASON NUMBER BASIN SUBBASIN NAME ISO_TIME NATURE LAT LON WMO_WIND WMO_PRES WMO_AGENCY TRACK_TYPE DIST2LAND LANDFALL IFLAG USA_AGENCY USA_ATCF_ID USA_LAT USA_LON USA_RECORD USA_STATUS USA_WIND USA_PRES USA_SSHS USA_R34_NE USA_R34_SE USA_R34_SW USA_R34_NW USA_R50_NE USA_R50_SE USA_R50_SW USA_R50_NW USA_R64_NE USA_R64_SE USA_R64_SW USA_R64_NW USA_POCI USA_ROCI USA_RMW USA_EYE TOKYO_LAT TOKYO_LON TOKYO_GRADE TOKYO_WIND TOKYO_PRES TOKYO_R50_DIR TOKYO_R50_LONG TOKYO_R50_SHORT TOKYO_R30_DIR TOKYO_R30_LONG TOKYO_R30_SHORT TOKYO_LAND CMA_LAT CMA_LON CMA_CAT CMA_WIND CMA_PRES HKO_LAT HKO_LON HKO_CAT HKO_WIND HKO_PRES NEWDELHI_LAT NEWDELHI_LON NEWDELHI_GRADE NEWDELHI_WIND NEWDELHI_PRES NEWDELHI_CI NEWDELHI_DP NEWDELHI_POCI REUNION_LAT REUNION_LON REUNION_TYPE REUNION_WIND REUNION_PRES REUNION_TNUM REUNION_CI REUNION_RMW REUNION_R34_NE REUNION_R34_SE REUNION_R34_SW REUNION_R34_NW REUNION_R50_NE REUNION_R50_SE REUNION_R50_SW REUNION_R50_NW REUNION_R64_NE REUNION_R64_SE REUNION_R64_SW REUNION_R64_NW BOM_LAT BOM_LON BOM_TYPE BOM_WIND BOM_PRES BOM_TNUM BOM_CI BOM_RMW BOM_R34_NE BOM_R34_SE BOM_R34_SW BOM_R34_NW BOM_R50_NE BOM_R50_SE BOM_R50_SW BOM_R50_NW BOM_R64_NE BOM_R64_SE BOM_R64_SW BOM_R64_NW BOM_ROCI BOM_POCI BOM_EYE BOM_POS_METHOD BOM_PRES_METHOD NADI_LAT NADI_LON NADI_CAT NADI_WIND NADI_PRES WELLINGTON_LAT WELLINGTON_LON WELLINGTON_WIND WELLINGTON_PRES DS824_LAT DS824_LON DS824_STAGE DS824_WIND DS824_PRES TD9636_LAT TD9636_LON TD9636_STAGE TD9636_WIND TD9636_PRES TD9635_LAT TD9635_LON TD9635_WIND TD9635_PRES TD9635_ROCI NEUMANN_LAT NEUMANN_LON NEUMANN_CLASS NEUMANN_WIND NEUMANN_PRES MLC_LAT MLC_LON MLC_CLASS MLC_WIND MLC_PRES USA_GUST BOM_GUST BOM_GUST_PER REUNION_GUST REUNION_GUST_PER USA_SEAHGT USA_SEARAD_NE USA_SEARAD_SE USA_SEARAD_SW USA_SEARAD_NW STORM_SPEED STORM_DIR
1992055S12119 1992 15 SI WA IAN 1992-02-23 18:00:00 TS -12.0000 118.500 main 265 265 O___________O_ jtwc_sh SH231992 -12.0000 118.500 15 -1 -12.0000 118.500 TC 15 4 243
1992055S12119 1992 15 SI WA IAN 1992-02-23 21:00:00 TS -12.1000 118.300 main 282 282 P___________P_ SH231992 -12.1000 118.300 15 -1 -12.1000 118.300 TC 15 4 243
1992055S12119 1992 15 SI WA IAN 1992-02-24 00:00:00 TS -12.2000 118.100 main 300 300 O___________O_ jtwc_sh SH231992 -12.2000 118.100 15 -1 -12.2000 118.100 TC 15 4 243
1992055S12119 1992 15 SI WA IAN 1992-02-24 03:00:00 TS -12.3000 117.900 main 319 319 P___________P_ SH231992 -12.3000 117.900 17 -1 -12.3000 117.900 TC 17 4 243
1992055S12119 1992 15 SI WA IAN 1992-02-24 06:00:00 TS -12.4000 117.700 main 338 338 O___________O_ jtwc_sh SH231992 -12.4000 117.700 20 -1 -12.4000 117.700 TC 20 4 243
1992055S12119 1992 15 SI WA IAN 1992-02-24 09:00:00 TS -12.5000 117.500 main 358 358 P___________P_ SH231992 -12.5000 117.500 20 -1 -12.5000 117.500 TC 20 4 243
1992055S12119 1992 15 SI WA IAN 1992-02-24 12:00:00 TS -12.6000 117.300 main 379 379 O___________O_ jtwc_sh SH231992 -12.6000 117.300 20 -1 -12.6000 117.300 TC 20 4 242
1992055S12119 1992 15 SI WA IAN 1992-02-24 15:00:00 TS -12.7075 117.100 main 400 400 P___________P_ SH231992 -12.7075 117.100 20 -1 -12.7075 117.100 TC 20 4 243
1992055S12119 1992 15 SI WA IAN 1992-02-24 18:00:00 TS -12.8000 116.900 main 414 414 O___________O_ jtwc_sh SH231992 -12.8000 116.900 20 -1 -12.8000 116.900 TC 20 4 249
1992055S12119 1992 15 SI WA IAN 1992-02-24 21:00:00 TS -12.8575 116.700 main 426 426 P___________P_ SH231992 -12.8575 116.700 20 -1 -12.8575 116.700 TC 20 4 256
1992055S12119 1992 15 SI WA IAN 1992-02-25 00:00:00 TS -12.9000 116.500 main 429 429 O___________O_ jtwc_sh SH231992 -12.9000 116.500 20 -1 -12.9000 116.500 TC 20 4 256
1992055S12119 1992 15 SI WA IAN 1992-02-25 03:00:00 TS -12.9575 116.300 main 443 443 P___________P_ SH231992 -12.9575 116.300 20 -1 -12.9575 116.300 TC 20 4 256
1992055S12119 1992 15 SI WA IAN 1992-02-25 06:00:00 TS -13.0000 116.100 main 447 447 O___________O_ jtwc_sh SH231992 -13.0000 116.100 20 -1 -13.0000 116.100 TC 20 4 262
1992055S12119 1992 15 SI WA IAN 1992-02-25 09:00:00 TS -13.0150 115.893 main 451 451 P___________P_ SH231992 -13.0150 115.893 22 -1 -13.0150 115.893 TC 22 4 270
1992055S12119 1992 15 SI WA IAN 1992-02-25 12:00:00 TS -13.0000 115.700 main 454 454 O___________O_ jtwc_sh SH231992 -13.0000 115.700 25 -1 -13.0000 115.700 TC 25 3 280
1992055S12119 1992 15 SI WA IAN 1992-02-25 15:00:00 TS -12.9575 115.542 main 458 447 P___________P_ SH231992 -12.9575 115.542 25 -1 -12.9575 115.542 TC 25 3 289
1992055S12119 1992 15 SI WA IAN 1992-02-25 18:00:00 TS -12.9000 115.400 main 450 450 O___________O_ jtwc_sh SH231992 -12.9000 115.400 25 -1 -12.9000 115.400 TC 25 3 291
1992055S12119 1992 15 SI WA IAN 1992-02-25 21:00:00 TS -12.8500 115.250 main 442 442 P___________P_ SH231992 -12.8500 115.250 25 -1 -12.8500 115.250 TC 25 3 289
1992055S12119 1992 15 SI WA IAN 1992-02-26 00:00:00 TS -12.8000 115.100 main 447 447 O___________O_ jtwc_sh SH231992 -12.8000 115.100 25 -1 -12.8000 115.100 TC 25 3 289
1992055S12119 1992 15 SI WA IAN 1992-02-26 03:00:00 TS -12.7500 114.943 main 437 437 P___________P_ SH231992 -12.7500 114.943 25 -1 -12.7500 114.943 TC 25 3 289
1992055S12119 1992 15 SI WA IAN 1992-02-26 06:00:00 TS -12.7000 114.800 main 437 436 O___________O_ jtwc_sh SH231992 -12.7000 114.800 25 -1 -12.7000 114.800 TC 25 3 290
1992055S12119 1992 15 SI WA IAN 1992-02-26 09:00:00 TS -12.6575 114.685 main 436 425 P___________P_ SH231992 -12.6575 114.685 27 -1 -12.6575 114.685 TC 27 2 297
1992055S12119 1992 15 SI WA IAN 1992-02-26 12:00:00 TS -12.6000 114.600 main 425 414 O___________O_ jtwc_sh SH231992 -12.6000 114.600 30 -1 -12.6000 114.600 TC 30 2 315
1992055S12119 1992 15 SI WA IAN 1992-02-26 15:00:00 TS -12.5075 114.527 main 414 403 P___________P_ SH231992 -12.5075 114.527 30 -1 -12.5075 114.527 TC 30 2 333
1992055S12119 1992 15 SI WA IAN 1992-02-26 18:00:00 TS -12.4000 114.500 main 403 392 O___________O_ jtwc_sh SH231992 -12.4000 114.500 30 -1 -12.4000 114.500 TC 30 2 8
1992055S12119 1992 15 SI WA IAN 1992-02-26 21:00:00 TS -12.3000 114.528 main 392 380 P___________P_ SH231992 -12.3000 114.528 32 -1 -12.3000 114.528 TC 32 3 15
1992055S12119 1992 15 SI WA IAN 1992-02-27 00:00:00 TS -12.1556 114.567 30 1000 bom main 380 358 O_____O_____O_ jtwc_sh SH231992 -12.2000 114.600 35 0 -11.8000 114.300 20 30 1000 2.50000 161 3 5 -12.2000 114.600 TC 35 3 19
1992055S12119 1992 15 SI WA IAN 1992-02-27 03:00:00 TS -12.0275 114.625 main 358 347 P_____P_____P_ SH231992 -12.1000 114.693 35 0 -11.7374 114.355 20 32 997 174 -12.1000 114.693 TC 35 3 32
1992055S12119 1992 15 SI WA IAN 1992-02-27 06:00:00 TS -11.9182 114.718 35 995 bom main 347 336 O_____O_____O_ jtwc_sh SH231992 -12.0000 114.800 35 0 -11.7000 114.500 30 35 995 3.00000 188 3 5 -12.0000 114.800 TC 35 3 48
1992055S12119 1992 15 SI WA IAN 1992-02-27 09:00:00 TS -11.8283 114.852 main 336 336 P_____P_____P_ SH231992 -11.8925 114.885 37 0 -11.7001 114.785 30 35 995 188 -11.8925 114.885 TC 37 3 64
1992055S12119 1992 15 SI WA IAN 1992-02-27 12:00:00 TS -11.7667 115.033 35 995 bom main 336 324 O_____O_____O_ jtwc_sh SH231992 -11.8000 115.000 40 0 -11.7000 115.100 30 35 995 3.00000 188 3 5 -11.8000 115.000 TC 40 4 72
1992055S12119 1992 15 SI WA IAN 1992-02-27 15:00:00 TS -11.7116 115.223 main 324 320 P_____P_____P_ SH231992 -11.7425 115.177 40 0 -11.6499 115.315 30 37 992 188 -11.7425 115.177 TC 40 4 76
1992055S12119 1992 15 SI WA IAN 1992-02-27 18:00:00 TS -11.6667 115.433 40 990 bom main 320 304 O_____O_____O_ jtwc_sh SH231992 -11.7000 115.400 40 0 -11.6000 115.500 30 40 990 3.00000 188 3 5 -11.7000 115.400 TC 40 4 78
1992055S12119 1992 15 SI WA IAN 1992-02-27 21:00:00 TS -11.6208 115.657 main 301 296 P_____P_____P_ SH231992 -11.6350 115.643 42 0 -11.5925 115.685 30 47 985 188 -11.6350 115.643 TC 42 5 82
1992055S12119 1992 15 SI WA IAN 1992-02-28 00:00:00 TS -11.6000 115.900 55 980 bom main 296 292 O_____O_____O_ jtwc_sh SH231992 -11.6000 115.900 45 0 -11.6000 115.900 30 55 980 4.00000 188 3 5 -11.6000 115.900 TC 45 5 89
1992055S12119 1992 15 SI WA IAN 1992-02-28 03:00:00 TS -11.6108 116.172 main 292 287 P_____P_____P_ SH231992 -11.6275 116.157 47 0 -11.5776 116.200 30 60 975 188 -11.6275 116.157 TC 47 5 97
1992055S12119 1992 15 SI WA IAN 1992-02-28 06:00:00 TS -11.6667 116.433 65 970 bom main 298 294 O_____O_____O_ jtwc_sh SH231992 -11.7000 116.400 50 0 -11.6000 116.500 40 65 970 4.50000 188 3 5 -11.7000 116.400 TC 50 5 107
1992055S12119 1992 15 SI WA IAN 1992-02-28 09:00:00 TS -11.7558 116.656 main 304 303 P_____P_____P_ SH231992 -11.7775 116.623 55 0 -11.7125 116.722 40 70 965 188 -11.7775 116.623 TC 55 5 121
1992055S12119 1992 15 SI WA IAN 1992-02-28 12:00:00 TS -11.9000 116.833 75 960 bom main 314 313 O_____O_____O_ jtwc_sh SH231992 -11.9000 116.800 60 0 -11.9000 116.900 40 75 960 4.50000 188 4 5 -11.9000 116.800 TC 60 5 138
1992055S12119 1992 15 SI WA IAN 1992-02-28 15:00:00 TS -12.0966 116.968 main 336 336 P_____P_____P_ SH231992 -12.0775 116.915 65 1 -12.1350 117.072 40 77 957 188 -12.0775 116.915 TC 65 5 152
1992055S12119 1992 15 SI WA IAN 1992-02-28 18:00:00 TS -12.3333 117.067 80 955 bom main 358 358 O_____O_____O_ jtwc_sh SH231992 -12.3000 117.000 70 1 -12.4000 117.200 40 80 955 5.00000 188 10 4 5 -12.3000 117.000 TC 70 5 158
1992055S12119 1992 15 SI WA IAN 1992-02-28 21:00:00 TS -12.5733 117.163 main 385 385 P_____P_____P_ SH231992 -12.5350 117.107 75 1 -12.6500 117.273 40 80 955 188 -12.5350 117.107 TC 75 5 162
1992055S12119 1992 15 SI WA IAN 1992-02-29 00:00:00 TS -12.8333 117.233 80 955 bom main 404 404 O_____O_____O_ jtwc_sh SH231992 -12.8000 117.200 80 1 -12.9000 117.300 40 80 955 5.00000 188 10 4 5 -12.8000 117.200 TC 80 5 168
1992055S12119 1992 15 SI WA IAN 1992-02-29 03:00:00 TS -13.1014 117.279 main 428 428 P_____P_____P_ SH231992 -13.0925 117.265 85 2 -13.1193 117.307 40 85 952 188 -13.0925 117.265 TC 85 6 173
1992055S12119 1992 15 SI WA IAN 1992-02-29 06:00:00 TS -13.4000 117.300 90 950 bom main 458 458 O_____O_____O_ jtwc_sh SH231992 -13.4000 117.300 90 2 -13.4000 117.300 40 90 950 5.50000 188 10 4 5 -13.4000 117.300 TC 90 6 0
1992055S12119 1992 15 SI WA IAN 1992-02-29 09:00:00 TS -13.7333 117.305 90 945 bom main 489 489 P_____O_____P_ SH231992 -13.7000 117.308 92 2 -13.8000 117.300 40 90 945 5.50000 188 10 4 5 -13.7000 117.308 TC 92 7 179
1992055S12119 1992 15 SI WA IAN 1992-02-29 12:00:00 TS -14.0667 117.300 90 945 bom main 530 530 O_____O_____O_ jtwc_sh SH231992 -14.0000 117.300 95 2 -14.2000 117.300 40 90 945 5.50000 188 9 4 5 -14.0000 117.300 TC 95 6 0
1992055S12119 1992 15 SI WA IAN 1992-02-29 15:00:00 TS -14.3617 117.300 85 950 bom main 561 561 P_____O_____P_ SH231992 -14.2925 117.300 97 3 -14.5000 117.300 40 85 950 5.00000 188 9 4 5 -14.2925 117.300 TC 97 6 0
1992055S12119 1992 15 SI WA IAN 1992-02-29 18:00:00 TS -14.6333 117.300 80 950 bom main 582 582 O_____O_____O_ jtwc_sh SH231992 -14.6000 117.300 100 3 -14.7000 117.300 40 80 950 5.00000 188 10 4 5 -14.6000 117.300 TC 100 6 0
1992055S12119 1992 15 SI WA IAN 1992-02-29 21:00:00 TS -14.9567 117.305 80 950 bom main 583 568 P_____O_____P_ SH231992 -14.9350 117.307 100 3 -15.0000 117.300 40 80 950 5.00000 188 10 4 5 -14.9350 117.307 TC 100 7 179
1992055S12119 1992 15 SI WA IAN 1992-03-01 00:00:00 TS -15.3000 117.300 85 945 bom main 568 527 O_____O_____O_ jtwc_sh SH231992 -15.3000 117.300 100 3 -15.3000 117.300 40 85 945 5.00000 188 12 4 5 -15.3000 117.300 TC 100 7 182
1992055S12119 1992 15 SI WA IAN 1992-03-01 03:00:00 TS -15.6900 117.277 95 935 bom main 527 490 P_____O_____P_ SH231992 -15.6850 117.265 102 3 -15.7000 117.300 40 95 935 5.50000 188 12 4 5 -15.6850 117.265 TC 102 8 187
1992055S12119 1992 15 SI WA IAN 1992-03-01 06:00:00 TS -16.1000 117.200 100 930 bom main 490 448 O_____O_____O_ jtwc_sh SH231992 -16.1000 117.200 105 3 -16.1000 117.200 40 100 930 6.00000 188 15 4 5 -16.1000 117.200 TC 105 9 190
1992055S12119 1992 15 SI WA IAN 1992-03-01 09:00:00 TS -16.5667 117.110 105 930 bom main 438 397 P_____O_____P_ SH231992 -16.5500 117.115 107 3 -16.6000 117.100 40 105 930 6.00000 188 15 4 5 -16.5500 117.115 TC 107 10 193
1992055S12119 1992 15 SI WA IAN 1992-03-01 12:00:00 TS -17.0333 116.967 105 935 bom main 397 358 O_____O_____O_ jtwc_sh SH231992 -17.0000 117.000 110 3 -17.1000 116.900 40 105 935 6.00000 161 15 6 5 -17.0000 117.000 TC 110 9 196
1992055S12119 1992 15 SI WA IAN 1992-03-01 15:00:00 TS -17.4383 116.843 100 945 bom main 357 313 P_____O_____P_ SH231992 -17.4075 116.865 112 3 -17.5000 116.800 40 100 945 6.00000 161 12 6 5 -17.4075 116.865 TC 112 9 200
1992055S12119 1992 15 SI WA IAN 1992-03-01 18:00:00 TS -17.8333 116.667 95 955 bom main 313 269 O_____O_____O_ jtwc_sh SH231992 -17.8000 116.700 115 4 -17.9000 116.600 40 95 955 5.50000 161 10 6 5 -17.8000 116.700 TC 115 9 204
1992055S12119 1992 15 SI WA IAN 1992-03-01 21:00:00 TS -18.2383 116.467 90 960 bom main 269 227 P_____O_____P_ SH231992 -18.2075 116.500 112 3 -18.3000 116.400 40 90 960 5.50000 161 10 6 5 -18.2075 116.500 TC 112 9 208
1992055S12119 1992 15 SI WA IAN 1992-03-02 00:00:00 TS -18.6000 116.233 85 960 bom main 229 200 O_____O_____O_ jtwc_sh SH231992 -18.6000 116.300 110 3 -18.6000 116.100 40 85 960 5.00000 161 9 6 5 -18.6000 116.300 TC 110 8 208
1992055S12119 1992 15 SI WA IAN 1992-03-02 03:00:00 TS -18.9667 116.057 80 960 bom main 189 162 P_____O_____P_ SH231992 -18.9500 116.135 107 3 -19.0000 115.900 40 80 960 5.00000 134 10 6 5 -18.9500 116.135 TC 107 8 201
1992055S12119 1992 15 SI WA IAN 1992-03-02 06:00:00 TS -19.3333 115.933 80 960 bom main 167 137 O_____O_____O_ jtwc_sh SH231992 -19.3000 116.000 105 3 -19.4000 115.800 40 80 960 5.00000 134 10 6 5 -19.3000 116.000 TC 105 8 198
1992055S12119 1992 15 SI WA IAN 1992-03-02 09:00:00 TS -19.7333 115.785 80 960 bom main 137 103 P_____O_____P_ SH231992 -19.7000 115.878 105 3 -19.8000 115.600 40 80 960 5.00000 134 12 6 5 -19.7000 115.878 TC 105 8 195
1992055S12119 1992 15 SI WA IAN 1992-03-02 12:00:00 TS -20.1333 115.700 80 960 bom main 103 76 O_____O_____O_ jtwc_sh SH231992 -20.1000 115.800 105 3 -20.2000 115.500 40 80 960 5.00000 107 12 6 5 -20.1000 115.800 TC 105 7 190
1992055S12119 1992 15 SI WA IAN 1992-03-02 15:00:00 TS -20.4667 115.652 80 960 bom main 68 49 P_____O_____P_ SH231992 -20.4500 115.777 102 3 -20.5000 115.400 40 80 960 5.00000 107 12 6 5 -20.4500 115.777 TC 102 7 185
1992055S12119 1992 15 SI WA IAN 1992-03-02 17:00:00 TS -20.6868 115.659 80 960 bom main 49 39 P_____O_____P_ SH231992 -20.6802 115.789 100 3 -20.7000 115.400 40 80 960 5.00000 107 12 6 5 -20.6802 115.789 TC 100 7 173
1992055S12119 1992 15 SI WA IAN 1992-03-02 18:00:00 TS -20.8000 115.700 80 960 bom main 39 0 O_____O_____O_ jtwc_sh SH231992 -20.8000 115.800 100 3 -20.8000 115.500 40 80 960 5.00000 107 12 6 4 -20.8000 115.800 TC 100 8 167
1992055S12119 1992 15 SI WA IAN 1992-03-02 21:00:00 TS -21.1900 115.780 75 965 bom main 0 0 P_____O_____P_ SH231992 -21.1850 115.820 92 2 -21.2000 115.700 40 75 965 4.50000 107 10 6 5 -21.1850 115.820 TC 85 8 171
1992055S12119 1992 15 SI WA IAN 1992-03-03 00:00:00 TS -21.6333 115.833 65 970 bom main 0 0 O_____O_____O_ jtwc_sh SH231992 -21.6000 115.900 85 2 -21.7000 115.700 40 65 970 80 3 5 -21.6000 115.900 TC 70 9 163
1992055S12119 1992 15 SI WA IAN 1992-03-03 03:00:00 TS -22.0616 116.070 60 975 bom main 0 0 P_____O_____P_ SH231992 -22.0424 116.055 70 1 -22.1000 116.100 30 60 975 80 3 5 -22.0424 116.055 TC 60 11 152
1992055S12119 1992 15 SI WA IAN 1992-03-03 06:00:00 TS -22.5667 116.367 55 980 bom main 0 0 O_____O_____O_ jtwc_sh SH231992 -22.5000 116.300 55 0 -22.7000 116.500 30 55 980 80 3 5 -22.5000 116.300 TC 50 11 149
1992055S12119 1992 15 SI WA IAN 1992-03-03 09:00:00 TS -23.0000 116.680 50 985 bom main 0 0 P_____O_____P_ SH231992 -22.9500 116.620 45 0 -23.1000 116.800 30 50 985 80 3 5 -22.9500 116.620 TC 45 11 144
1992055S12119 1992 15 SI WA IAN 1992-03-03 12:00:00 TS -23.4667 117.067 45 990 bom main 0 0 O_____O_____O_ jtwc_sh SH231992 -23.4000 117.000 35 0 -23.6000 117.200 30 45 990 80 3 5 -23.4000 117.000 TC 40 12 143
1992055S12119 1992 15 SI WA IAN 1992-03-03 15:00:00 TS -23.9333 117.457 35 995 bom main 0 0 P_____O_____P_ SH231992 -23.8499 117.385 30 -1 -24.1000 117.600 30 35 995 80 3 5 -23.8499 117.385 TC 37 12 142
1992055S12119 1992 15 SI WA IAN 1992-03-03 18:00:00 TS -24.3818 117.855 35 995 bom main 0 0 O_____O_____O_ jtwc_sh SH231992 -24.3000 117.800 25 -1 -24.6000 118.000 30 35 995 80 3 5 -24.3000 117.800 TC 35 11 141
1992055S12119 1992 15 SI WA IAN 1992-03-03 21:00:00 TS -24.8199 118.248 30 1000 bom main 0 0 P_____O_____P_ SH231992 -24.7499 118.235 22 -1 -25.1000 118.300 20 30 1000 80 3 5 -24.7499 118.235 TC 32 12 139
1992055S12119 1992 15 SI WA IAN 1992-03-04 00:00:00 TS -25.2714 118.700 25 1005 bom main 0 0 O_____O_____O_ jtwc_sh SH231992 -25.2000 118.700 20 -1 -25.7000 118.700 20 25 1005 80 3 5 -25.2000 118.700 TC 30 12 134
1992055S12119 1992 15 SI WA IAN 1992-03-04 03:00:00 TS -25.6504 119.192 main 0 0 P___________P_ SH231992 -25.6504 119.192 17 -1 -25.6504 119.192 TC 27 12 133
1992055S12119 1992 15 SI WA IAN 1992-03-04 06:00:00 TS -26.1000 119.700 main 0 O___________O_ jtwc_sh SH231992 -26.1000 119.700 15 -1 -26.1000 119.700 TC 25 13 135

About IBTrACS Database

This database is a web-friendly format of International Best Track Archive for Climate Stewardship (IBTrACS), a global best track data archive curated by NOAA dating back to 1842.

Updated: 2021-12-03